sensor_id;sensor_type;location;lat;lon;timestamp;P1;durP1;ratioP1;P2;durP2;ratioP2
5684;SDS011;2865;53.114;9.130;2023-05-10T00:01:38;3.37;;;2.57;;
5684;SDS011;2865;53.114;9.130;2023-05-10T00:04:03;2.83;;;2.63;;
5684;SDS011;2865;53.114;9.130;2023-05-10T00:06:29;2.63;;;2.30;;
5684;SDS011;2865;53.114;9.130;2023-05-10T00:08:54;2.97;;;2.67;;
5684;SDS011;2865;53.114;9.130;2023-05-10T00:11:20;3.90;;;2.33;;
5684;SDS011;2865;53.114;9.130;2023-05-10T00:13:45;2.73;;;2.40;;
5684;SDS011;2865;53.114;9.130;2023-05-10T00:16:11;2.43;;;2.23;;
5684;SDS011;2865;53.114;9.130;2023-05-10T00:18:36;5.60;;;2.60;;
5684;SDS011;2865;53.114;9.130;2023-05-10T00:21:02;3.90;;;2.30;;
5684;SDS011;2865;53.114;9.130;2023-05-10T00:23:27;2.70;;;2.50;;
5684;SDS011;2865;53.114;9.130;2023-05-10T00:25:52;3.87;;;2.10;;
5684;SDS011;2865;53.114;9.130;2023-05-10T00:28:18;2.43;;;2.23;;
5684;SDS011;2865;53.114;9.130;2023-05-10T00:30:43;2.80;;;2.30;;
5684;SDS011;2865;53.114;9.130;2023-05-10T00:33:08;3.07;;;2.53;;
5684;SDS011;2865;53.114;9.130;2023-05-10T00:35:34;2.80;;;2.40;;
5684;SDS011;2865;53.114;9.130;2023-05-10T00:37:59;6.73;;;2.70;;
5684;SDS011;2865;53.114;9.130;2023-05-10T00:40:25;4.37;;;2.70;;
5684;SDS011;2865;53.114;9.130;2023-05-10T00:42:50;4.10;;;2.40;;
5684;SDS011;2865;53.114;9.130;2023-05-10T00:45:16;3.70;;;2.80;;
5684;SDS011;2865;53.114;9.130;2023-05-10T00:47:41;2.93;;;2.43;;
5684;SDS011;2865;53.114;9.130;2023-05-10T00:50:07;4.10;;;2.47;;
5684;SDS011;2865;53.114;9.130;2023-05-10T00:52:34;7.83;;;2.60;;
5684;SDS011;2865;53.114;9.130;2023-05-10T00:55:00;5.23;;;2.73;;
5684;SDS011;2865;53.114;9.130;2023-05-10T00:57:25;4.03;;;2.73;;
5684;SDS011;2865;53.114;9.130;2023-05-10T00:59:50;3.33;;;2.93;;
5684;SDS011;2865;53.114;9.130;2023-05-10T01:02:16;5.70;;;3.07;;
5684;SDS011;2865;53.114;9.130;2023-05-10T01:04:41;2.90;;;2.70;;
5684;SDS011;2865;53.114;9.130;2023-05-10T01:07:06;2.93;;;2.73;;
5684;SDS011;2865;53.114;9.130;2023-05-10T01:09:32;2.67;;;2.47;;
5684;SDS011;2865;53.114;9.130;2023-05-10T01:11:57;2.83;;;2.63;;
5684;SDS011;2865;53.114;9.130;2023-05-10T01:14:22;5.43;;;3.53;;
5684;SDS011;2865;53.114;9.130;2023-05-10T01:16:49;5.53;;;3.10;;
5684;SDS011;2865;53.114;9.130;2023-05-10T01:19:17;3.70;;;2.93;;
5684;SDS011;2865;53.114;9.130;2023-05-10T01:21:49;5.33;;;2.80;;
5684;SDS011;2865;53.114;9.130;2023-05-10T01:24:27;2.93;;;2.63;;
5684;SDS011;2865;53.114;9.130;2023-05-10T01:27:15;4.50;;;2.80;;
5684;SDS011;2865;53.114;9.130;2023-05-10T01:30:25;4.53;;;2.50;;
5684;SDS011;2865;53.114;9.130;2023-05-10T01:32:40;9.33;;;3.10;;
5684;SDS011;2865;53.114;9.130;2023-05-10T01:35:19;3.00;;;2.80;;
5684;SDS011;2865;53.114;9.130;2023-05-10T01:37:52;8.20;;;2.80;;
5684;SDS011;2865;53.114;9.130;2023-05-10T01:40:23;3.90;;;3.10;;
5684;SDS011;2865;53.114;9.130;2023-05-10T01:42:49;3.17;;;2.97;;
5684;SDS011;2865;53.114;9.130;2023-05-10T01:45:19;2.90;;;2.60;;
5684;SDS011;2865;53.114;9.130;2023-05-10T01:47:43;3.80;;;2.87;;
5684;SDS011;2865;53.114;9.130;2023-05-10T01:50:10;3.90;;;3.03;;
5684;SDS011;2865;53.114;9.130;2023-05-10T01:52:37;3.37;;;3.07;;
5684;SDS011;2865;53.114;9.130;2023-05-10T01:55:02;4.17;;;3.17;;
5684;SDS011;2865;53.114;9.130;2023-05-10T01:57:27;4.27;;;2.90;;
5684;SDS011;2865;53.114;9.130;2023-05-10T01:59:52;4.17;;;3.23;;
5684;SDS011;2865;53.114;9.130;2023-05-10T02:02:18;8.40;;;3.60;;
5684;SDS011;2865;53.114;9.130;2023-05-10T02:07:21;4.23;;;3.83;;
5684;SDS011;2865;53.114;9.130;2023-05-10T02:09:46;3.37;;;3.07;;
5684;SDS011;2865;53.114;9.130;2023-05-10T02:12:12;3.60;;;3.13;;
5684;SDS011;2865;53.114;9.130;2023-05-10T02:14:37;4.23;;;3.07;;
5684;SDS011;2865;53.114;9.130;2023-05-10T02:17:04;3.00;;;2.80;;
5684;SDS011;2865;53.114;9.130;2023-05-10T02:19:28;3.47;;;2.90;;
5684;SDS011;2865;53.114;9.130;2023-05-10T02:21:53;4.17;;;2.90;;
5684;SDS011;2865;53.114;9.130;2023-05-10T02:24:19;3.63;;;3.27;;
5684;SDS011;2865;53.114;9.130;2023-05-10T02:26:44;3.70;;;3.37;;
5684;SDS011;2865;53.114;9.130;2023-05-10T02:29:10;3.20;;;2.90;;
5684;SDS011;2865;53.114;9.130;2023-05-10T02:31:35;5.17;;;3.07;;
5684;SDS011;2865;53.114;9.130;2023-05-10T02:34:01;3.40;;;3.10;;
5684;SDS011;2865;53.114;9.130;2023-05-10T02:36:26;6.57;;;2.90;;
5684;SDS011;2865;53.114;9.130;2023-05-10T02:38:51;3.63;;;3.33;;
5684;SDS011;2865;53.114;9.130;2023-05-10T02:41:17;3.33;;;3.00;;
5684;SDS011;2865;53.114;9.130;2023-05-10T02:43:42;3.87;;;2.97;;
5684;SDS011;2865;53.114;9.130;2023-05-10T02:46:07;3.50;;;3.17;;
5684;SDS011;2865;53.114;9.130;2023-05-10T02:48:33;3.73;;;3.43;;
5684;SDS011;2865;53.114;9.130;2023-05-10T02:51:00;3.83;;;3.40;;
5684;SDS011;2865;53.114;9.130;2023-05-10T02:53:28;5.20;;;3.10;;
5684;SDS011;2865;53.114;9.130;2023-05-10T02:55:50;3.60;;;2.90;;
5684;SDS011;2865;53.114;9.130;2023-05-10T02:58:15;4.87;;;3.30;;
5684;SDS011;2865;53.114;9.130;2023-05-10T03:00:40;3.90;;;3.50;;
5684;SDS011;2865;53.114;9.130;2023-05-10T03:03:06;4.57;;;3.60;;
5684;SDS011;2865;53.114;9.130;2023-05-10T03:05:31;4.60;;;3.50;;
5684;SDS011;2865;53.114;9.130;2023-05-10T03:07:56;5.37;;;3.93;;
5684;SDS011;2865;53.114;9.130;2023-05-10T03:10:23;3.80;;;3.50;;
5684;SDS011;2865;53.114;9.130;2023-05-10T03:12:52;4.20;;;3.40;;
5684;SDS011;2865;53.114;9.130;2023-05-10T03:18:21;4.40;;;3.10;;
5684;SDS011;2865;53.114;9.130;2023-05-10T03:20:47;3.50;;;3.20;;
5684;SDS011;2865;53.114;9.130;2023-05-10T03:23:17;3.37;;;3.10;;
5684;SDS011;2865;53.114;9.130;2023-05-10T03:25:40;3.20;;;3.00;;
5684;SDS011;2865;53.114;9.130;2023-05-10T03:28:06;4.83;;;3.60;;
5684;SDS011;2865;53.114;9.130;2023-05-10T03:30:31;4.70;;;3.73;;
5684;SDS011;2865;53.114;9.130;2023-05-10T03:32:57;4.00;;;3.60;;
5684;SDS011;2865;53.114;9.130;2023-05-10T03:35:22;8.73;;;3.40;;
5684;SDS011;2865;53.114;9.130;2023-05-10T03:37:47;4.03;;;3.60;;
5684;SDS011;2865;53.114;9.130;2023-05-10T03:40:13;5.20;;;4.70;;
5684;SDS011;2865;53.114;9.130;2023-05-10T03:42:38;4.77;;;3.80;;
5684;SDS011;2865;53.114;9.130;2023-05-10T03:45:04;6.30;;;3.20;;
5684;SDS011;2865;53.114;9.130;2023-05-10T03:47:30;5.73;;;4.50;;
5684;SDS011;2865;53.114;9.130;2023-05-10T03:49:56;5.37;;;4.13;;
5684;SDS011;2865;53.114;9.130;2023-05-10T03:52:21;4.03;;;3.63;;
5684;SDS011;2865;53.114;9.130;2023-05-10T03:54:47;5.77;;;4.17;;
5684;SDS011;2865;53.114;9.130;2023-05-10T03:57:12;9.70;;;4.00;;
5684;SDS011;2865;53.114;9.130;2023-05-10T03:59:37;3.93;;;3.63;;
5684;SDS011;2865;53.114;9.130;2023-05-10T04:02:03;4.13;;;3.83;;
5684;SDS011;2865;53.114;9.130;2023-05-10T04:04:28;6.23;;;4.00;;
5684;SDS011;2865;53.114;9.130;2023-05-10T04:06:53;5.83;;;3.83;;
5684;SDS011;2865;53.114;9.130;2023-05-10T04:09:19;7.20;;;4.10;;
5684;SDS011;2865;53.114;9.130;2023-05-10T04:11:44;3.97;;;3.57;;
5684;SDS011;2865;53.114;9.130;2023-05-10T04:14:10;4.33;;;3.90;;
5684;SDS011;2865;53.114;9.130;2023-05-10T04:16:35;4.73;;;3.97;;
5684;SDS011;2865;53.114;9.130;2023-05-10T04:19:00;4.30;;;3.90;;
5684;SDS011;2865;53.114;9.130;2023-05-10T04:21:26;3.93;;;3.40;;
5684;SDS011;2865;53.114;9.130;2023-05-10T04:23:51;7.00;;;3.90;;
5684;SDS011;2865;53.114;9.130;2023-05-10T04:26:17;4.60;;;3.97;;
5684;SDS011;2865;53.114;9.130;2023-05-10T04:28:42;6.57;;;4.27;;
5684;SDS011;2865;53.114;9.130;2023-05-10T04:31:08;5.20;;;4.00;;
5684;SDS011;2865;53.114;9.130;2023-05-10T04:33:33;6.27;;;4.50;;
5684;SDS011;2865;53.114;9.130;2023-05-10T04:35:58;6.90;;;4.03;;
5684;SDS011;2865;53.114;9.130;2023-05-10T04:38:24;5.60;;;4.50;;
5684;SDS011;2865;53.114;9.130;2023-05-10T04:40:49;6.33;;;4.43;;
5684;SDS011;2865;53.114;9.130;2023-05-10T04:43:14;4.63;;;4.17;;
5684;SDS011;2865;53.114;9.130;2023-05-10T04:45:40;6.50;;;4.63;;
5684;SDS011;2865;53.114;9.130;2023-05-10T04:48:05;4.40;;;4.00;;
5684;SDS011;2865;53.114;9.130;2023-05-10T04:50:31;4.90;;;4.50;;
5684;SDS011;2865;53.114;9.130;2023-05-10T04:52:56;5.20;;;4.67;;
5684;SDS011;2865;53.114;9.130;2023-05-10T04:55:22;4.57;;;4.17;;
5684;SDS011;2865;53.114;9.130;2023-05-10T04:57:47;8.13;;;5.60;;
5684;SDS011;2865;53.114;9.130;2023-05-10T05:00:13;6.40;;;4.87;;
5684;SDS011;2865;53.114;9.130;2023-05-10T05:02:42;8.83;;;5.00;;
5684;SDS011;2865;53.114;9.130;2023-05-10T05:05:05;5.17;;;4.73;;
5684;SDS011;2865;53.114;9.130;2023-05-10T05:07:31;5.00;;;4.50;;
5684;SDS011;2865;53.114;9.130;2023-05-10T05:09:56;5.73;;;5.20;;
5684;SDS011;2865;53.114;9.130;2023-05-10T05:12:22;5.73;;;5.00;;
5684;SDS011;2865;53.114;9.130;2023-05-10T05:14:47;5.77;;;5.27;;
5684;SDS011;2865;53.114;9.130;2023-05-10T05:17:12;5.20;;;4.77;;
5684;SDS011;2865;53.114;9.130;2023-05-10T05:19:38;8.47;;;5.30;;
5684;SDS011;2865;53.114;9.130;2023-05-10T05:22:03;4.97;;;4.57;;
5684;SDS011;2865;53.114;9.130;2023-05-10T05:24:28;4.93;;;4.53;;
5684;SDS011;2865;53.114;9.130;2023-05-10T05:26:54;6.30;;;4.53;;
5684;SDS011;2865;53.114;9.130;2023-05-10T05:29:19;5.47;;;4.97;;
5684;SDS011;2865;53.114;9.130;2023-05-10T05:31:44;5.53;;;5.03;;
5684;SDS011;2865;53.114;9.130;2023-05-10T05:34:10;5.20;;;4.70;;
5684;SDS011;2865;53.114;9.130;2023-05-10T05:36:36;5.63;;;5.13;;
5684;SDS011;2865;53.114;9.130;2023-05-10T05:39:01;11.50;;;6.33;;
5684;SDS011;2865;53.114;9.130;2023-05-10T05:41:26;6.27;;;5.40;;
5684;SDS011;2865;53.114;9.130;2023-05-10T05:43:52;5.63;;;5.13;;
5684;SDS011;2865;53.114;9.130;2023-05-10T05:46:17;5.83;;;5.33;;
5684;SDS011;2865;53.114;9.130;2023-05-10T05:48:42;6.00;;;5.50;;
5684;SDS011;2865;53.114;9.130;2023-05-10T05:51:08;7.40;;;5.80;;
5684;SDS011;2865;53.114;9.130;2023-05-10T05:53:33;6.63;;;5.57;;
5684;SDS011;2865;53.114;9.130;2023-05-10T05:55:59;8.07;;;6.10;;
5684;SDS011;2865;53.114;9.130;2023-05-10T05:58:24;6.80;;;6.20;;
5684;SDS011;2865;53.114;9.130;2023-05-10T06:00:50;7.53;;;5.97;;
5684;SDS011;2865;53.114;9.130;2023-05-10T06:03:15;5.83;;;5.30;;
5684;SDS011;2865;53.114;9.130;2023-05-10T06:05:40;6.47;;;5.77;;
5684;SDS011;2865;53.114;9.130;2023-05-10T06:08:06;8.43;;;6.90;;
5684;SDS011;2865;53.114;9.130;2023-05-10T06:10:31;7.63;;;6.30;;
5684;SDS011;2865;53.114;9.130;2023-05-10T06:12:56;6.40;;;5.80;;
5684;SDS011;2865;53.114;9.130;2023-05-10T06:15:22;6.93;;;6.27;;
5684;SDS011;2865;53.114;9.130;2023-05-10T06:17:47;6.60;;;5.97;;
5684;SDS011;2865;53.114;9.130;2023-05-10T06:20:13;6.67;;;6.07;;
5684;SDS011;2865;53.114;9.130;2023-05-10T06:22:38;7.23;;;6.60;;
5684;SDS011;2865;53.114;9.130;2023-05-10T06:25:04;7.53;;;6.70;;
5684;SDS011;2865;53.114;9.130;2023-05-10T06:27:30;8.40;;;6.80;;
5684;SDS011;2865;53.114;9.130;2023-05-10T06:29:55;7.47;;;6.77;;
5684;SDS011;2865;53.114;9.130;2023-05-10T06:32:21;7.23;;;6.47;;
5684;SDS011;2865;53.114;9.130;2023-05-10T06:34:46;8.47;;;7.40;;
5684;SDS011;2865;53.114;9.130;2023-05-10T06:37:12;10.57;;;7.93;;
5684;SDS011;2865;53.114;9.130;2023-05-10T06:39:37;7.67;;;6.97;;
5684;SDS011;2865;53.114;9.130;2023-05-10T06:42:03;7.83;;;6.43;;
5684;SDS011;2865;53.114;9.130;2023-05-10T06:44:29;7.30;;;6.60;;
5684;SDS011;2865;53.114;9.130;2023-05-10T06:46:54;7.17;;;6.47;;
5684;SDS011;2865;53.114;9.130;2023-05-10T06:49:20;8.30;;;7.40;;
5684;SDS011;2865;53.114;9.130;2023-05-10T06:51:45;8.17;;;7.47;;
5684;SDS011;2865;53.114;9.130;2023-05-10T06:54:10;8.17;;;6.90;;
5684;SDS011;2865;53.114;9.130;2023-05-10T06:56:36;9.63;;;6.77;;
5684;SDS011;2865;53.114;9.130;2023-05-10T06:59:02;11.87;;;7.40;;
5684;SDS011;2865;53.114;9.130;2023-05-10T07:01:28;10.27;;;7.33;;
5684;SDS011;2865;53.114;9.130;2023-05-10T07:03:53;10.33;;;6.67;;
5684;SDS011;2865;53.114;9.130;2023-05-10T07:06:18;9.33;;;7.70;;
5684;SDS011;2865;53.114;9.130;2023-05-10T07:08:44;9.07;;;7.17;;
5684;SDS011;2865;53.114;9.130;2023-05-10T07:11:09;8.77;;;7.20;;
5684;SDS011;2865;53.114;9.130;2023-05-10T07:13:36;8.30;;;7.50;;
5684;SDS011;2865;53.114;9.130;2023-05-10T07:16:01;8.07;;;7.37;;
5684;SDS011;2865;53.114;9.130;2023-05-10T07:18:27;7.60;;;6.80;;
5684;SDS011;2865;53.114;9.130;2023-05-10T07:20:52;6.67;;;6.07;;
5684;SDS011;2865;53.114;9.130;2023-05-10T07:23:18;7.37;;;6.77;;
5684;SDS011;2865;53.114;9.130;2023-05-10T07:25:45;9.23;;;8.07;;
5684;SDS011;2865;53.114;9.130;2023-05-10T07:28:09;8.47;;;7.47;;
5684;SDS011;2865;53.114;9.130;2023-05-10T07:30:35;8.37;;;7.10;;
5684;SDS011;2865;53.114;9.130;2023-05-10T07:33:00;8.57;;;7.77;;
5684;SDS011;2865;53.114;9.130;2023-05-10T07:35:26;10.70;;;8.60;;
5684;SDS011;2865;53.114;9.130;2023-05-10T07:37:51;7.63;;;6.83;;
5684;SDS011;2865;53.114;9.130;2023-05-10T07:40:16;8.73;;;7.90;;
5684;SDS011;2865;53.114;9.130;2023-05-10T07:42:42;10.03;;;7.70;;
5684;SDS011;2865;53.114;9.130;2023-05-10T07:45:08;8.57;;;7.70;;
5684;SDS011;2865;53.114;9.130;2023-05-10T07:47:34;9.13;;;8.23;;
5684;SDS011;2865;53.114;9.130;2023-05-10T07:49:59;9.40;;;7.83;;
5684;SDS011;2865;53.114;9.130;2023-05-10T07:52:25;9.70;;;8.70;;
5684;SDS011;2865;53.114;9.130;2023-05-10T07:57:34;8.60;;;7.70;;
5684;SDS011;2865;53.114;9.130;2023-05-10T08:00:00;12.87;;;9.70;;
5684;SDS011;2865;53.114;9.130;2023-05-10T08:02:25;10.80;;;9.03;;
5684;SDS011;2865;53.114;9.130;2023-05-10T08:04:50;9.13;;;8.27;;
5684;SDS011;2865;53.114;9.130;2023-05-10T08:07:17;9.43;;;8.40;;
5684;SDS011;2865;53.114;9.130;2023-05-10T08:09:42;8.90;;;8.00;;
5684;SDS011;2865;53.114;9.130;2023-05-10T08:12:08;8.73;;;7.70;;
5684;SDS011;2865;53.114;9.130;2023-05-10T08:14:34;10.43;;;9.33;;
5684;SDS011;2865;53.114;9.130;2023-05-10T08:17:00;10.00;;;9.00;;
5684;SDS011;2865;53.114;9.130;2023-05-10T08:19:26;13.73;;;8.70;;
5684;SDS011;2865;53.114;9.130;2023-05-10T08:21:52;9.47;;;8.67;;
5684;SDS011;2865;53.114;9.130;2023-05-10T08:24:18;10.50;;;9.10;;
5684;SDS011;2865;53.114;9.130;2023-05-10T08:26:43;12.13;;;10.23;;
5684;SDS011;2865;53.114;9.130;2023-05-10T08:29:09;10.70;;;9.60;;
5684;SDS011;2865;53.114;9.130;2023-05-10T08:31:34;10.53;;;9.53;;
5684;SDS011;2865;53.114;9.130;2023-05-10T08:34:00;9.73;;;8.73;;
5684;SDS011;2865;53.114;9.130;2023-05-10T08:36:26;10.07;;;9.17;;
5684;SDS011;2865;53.114;9.130;2023-05-10T08:38:51;10.70;;;8.90;;
5684;SDS011;2865;53.114;9.130;2023-05-10T08:41:19;10.10;;;9.10;;
5684;SDS011;2865;53.114;9.130;2023-05-10T08:43:44;10.67;;;9.10;;
5684;SDS011;2865;53.114;9.130;2023-05-10T08:46:09;10.97;;;9.90;;
5684;SDS011;2865;53.114;9.130;2023-05-10T08:48:35;11.60;;;8.80;;
5684;SDS011;2865;53.114;9.130;2023-05-10T08:51:00;9.87;;;8.87;;
5684;SDS011;2865;53.114;9.130;2023-05-10T08:53:25;10.43;;;8.30;;
5684;SDS011;2865;53.114;9.130;2023-05-10T08:55:51;9.73;;;8.73;;
5684;SDS011;2865;53.114;9.130;2023-05-10T08:58:16;9.20;;;8.30;;
5684;SDS011;2865;53.114;9.130;2023-05-10T09:00:42;9.77;;;8.87;;
5684;SDS011;2865;53.114;9.130;2023-05-10T09:03:07;9.77;;;8.77;;
5684;SDS011;2865;53.114;9.130;2023-05-10T09:05:33;9.63;;;8.73;;
5684;SDS011;2865;53.114;9.130;2023-05-10T09:07:58;10.03;;;8.87;;
5684;SDS011;2865;53.114;9.130;2023-05-10T09:10:27;9.20;;;8.30;;
5684;SDS011;2865;53.114;9.130;2023-05-10T09:12:53;9.23;;;7.70;;
5684;SDS011;2865;53.114;9.130;2023-05-10T09:15:18;9.03;;;8.10;;
5684;SDS011;2865;53.114;9.130;2023-05-10T09:17:43;9.03;;;8.13;;
5684;SDS011;2865;53.114;9.130;2023-05-10T09:20:09;7.87;;;7.07;;
5684;SDS011;2865;53.114;9.130;2023-05-10T09:22:34;8.27;;;7.47;;
5684;SDS011;2865;53.114;9.130;2023-05-10T09:25:03;8.10;;;7.30;;
5684;SDS011;2865;53.114;9.130;2023-05-10T09:27:33;8.63;;;7.83;;
5684;SDS011;2865;53.114;9.130;2023-05-10T09:29:58;8.10;;;7.40;;
5684;SDS011;2865;53.114;9.130;2023-05-10T09:32:44;7.90;;;7.13;;
5684;SDS011;2865;53.114;9.130;2023-05-10T09:35:10;8.03;;;7.23;;
5684;SDS011;2865;53.114;9.130;2023-05-10T09:37:35;8.03;;;6.77;;
5684;SDS011;2865;53.114;9.130;2023-05-10T09:40:00;7.93;;;7.23;;
5684;SDS011;2865;53.114;9.130;2023-05-10T09:42:25;8.37;;;7.57;;
5684;SDS011;2865;53.114;9.130;2023-05-10T09:44:51;7.63;;;6.93;;
5684;SDS011;2865;53.114;9.130;2023-05-10T09:47:16;7.37;;;6.67;;
5684;SDS011;2865;53.114;9.130;2023-05-10T09:49:41;6.10;;;5.50;;
5684;SDS011;2865;53.114;9.130;2023-05-10T09:52:07;6.80;;;5.90;;
5684;SDS011;2865;53.114;9.130;2023-05-10T09:54:33;6.73;;;5.60;;
5684;SDS011;2865;53.114;9.130;2023-05-10T09:56:58;5.80;;;5.30;;
5684;SDS011;2865;53.114;9.130;2023-05-10T09:59:25;5.03;;;4.63;;
5684;SDS011;2865;53.114;9.130;2023-05-10T10:01:50;6.10;;;4.30;;
5684;SDS011;2865;53.114;9.130;2023-05-10T10:04:15;3.97;;;3.67;;
5684;SDS011;2865;53.114;9.130;2023-05-10T10:06:40;3.77;;;3.47;;
5684;SDS011;2865;53.114;9.130;2023-05-10T10:09:06;2.80;;;2.60;;
5684;SDS011;2865;53.114;9.130;2023-05-10T10:11:32;2.60;;;2.40;;
5684;SDS011;2865;53.114;9.130;2023-05-10T10:13:57;3.13;;;2.27;;
5684;SDS011;2865;53.114;9.130;2023-05-10T10:16:22;3.00;;;2.80;;
5684;SDS011;2865;53.114;9.130;2023-05-10T10:18:48;4.37;;;3.00;;
5684;SDS011;2865;53.114;9.130;2023-05-10T10:21:14;3.00;;;2.80;;
5684;SDS011;2865;53.114;9.130;2023-05-10T10:23:39;3.27;;;3.00;;
5684;SDS011;2865;53.114;9.130;2023-05-10T10:26:05;3.07;;;2.87;;
5684;SDS011;2865;53.114;9.130;2023-05-10T10:28:35;2.93;;;2.67;;
5684;SDS011;2865;53.114;9.130;2023-05-10T10:31:13;3.87;;;2.80;;
5684;SDS011;2865;53.114;9.130;2023-05-10T10:33:51;3.30;;;3.00;;
5684;SDS011;2865;53.114;9.130;2023-05-10T10:36:20;5.40;;;2.90;;
5684;SDS011;2865;53.114;9.130;2023-05-10T10:41:35;3.43;;;3.13;;
5684;SDS011;2865;53.114;9.130;2023-05-10T10:49:16;2.90;;;2.70;;
5684;SDS011;2865;53.114;9.130;2023-05-10T10:52:12;3.20;;;2.90;;
5684;SDS011;2865;53.114;9.130;2023-05-10T10:54:09;2.93;;;2.73;;
5684;SDS011;2865;53.114;9.130;2023-05-10T10:56:34;3.47;;;3.27;;
5684;SDS011;2865;53.114;9.130;2023-05-10T10:59:00;3.50;;;3.20;;
5684;SDS011;2865;53.114;9.130;2023-05-10T11:01:26;3.30;;;3.00;;
5684;SDS011;2865;53.114;9.130;2023-05-10T11:04:26;3.00;;;2.80;;
5684;SDS011;2865;53.114;9.130;2023-05-10T11:06:42;3.17;;;2.97;;
5684;SDS011;2865;53.114;9.130;2023-05-10T11:09:08;3.40;;;2.53;;
5684;SDS011;2865;53.114;9.130;2023-05-10T11:11:34;2.50;;;2.30;;
5684;SDS011;2865;53.114;9.130;2023-05-10T11:14:02;2.10;;;1.70;;
5684;SDS011;2865;53.114;9.130;2023-05-10T11:16:24;2.00;;;1.70;;
5684;SDS011;2865;53.114;9.130;2023-05-10T11:18:52;1.90;;;1.70;;
5684;SDS011;2865;53.114;9.130;2023-05-10T11:21:26;3.30;;;2.00;;
5684;SDS011;2865;53.114;9.130;2023-05-10T11:23:53;2.57;;;2.40;;
5684;SDS011;2865;53.114;9.130;2023-05-10T11:26:17;2.57;;;2.30;;
5684;SDS011;2865;53.114;9.130;2023-05-10T11:28:44;2.90;;;2.70;;
5684;SDS011;2865;53.114;9.130;2023-05-10T11:31:09;2.63;;;2.43;;
5684;SDS011;2865;53.114;9.130;2023-05-10T11:36:10;4.37;;;2.90;;
5684;SDS011;2865;53.114;9.130;2023-05-10T11:38:32;3.67;;;3.10;;
5684;SDS011;2865;53.114;9.130;2023-05-10T11:40:58;4.60;;;2.40;;
5684;SDS011;2865;53.114;9.130;2023-05-10T11:43:24;2.57;;;2.37;;
5684;SDS011;2865;53.114;9.130;2023-05-10T11:45:49;2.70;;;2.50;;
5684;SDS011;2865;53.114;9.130;2023-05-10T11:48:14;2.83;;;2.63;;
5684;SDS011;2865;53.114;9.130;2023-05-10T11:50:40;2.80;;;2.60;;
5684;SDS011;2865;53.114;9.130;2023-05-10T11:53:05;3.80;;;2.60;;
5684;SDS011;2865;53.114;9.130;2023-05-10T11:55:33;3.00;;;2.70;;
5684;SDS011;2865;53.114;9.130;2023-05-10T11:57:59;2.77;;;2.60;;
5684;SDS011;2865;53.114;9.130;2023-05-10T12:00:22;3.07;;;2.77;;
5684;SDS011;2865;53.114;9.130;2023-05-10T12:02:47;3.80;;;2.90;;
5684;SDS011;2865;53.114;9.130;2023-05-10T12:05:13;2.90;;;2.70;;
5684;SDS011;2865;53.114;9.130;2023-05-10T12:07:38;3.90;;;2.90;;
5684;SDS011;2865;53.114;9.130;2023-05-10T12:10:07;3.77;;;3.50;;
5684;SDS011;2865;53.114;9.130;2023-05-10T12:12:39;6.93;;;3.10;;
5684;SDS011;2865;53.114;9.130;2023-05-10T12:15:09;3.50;;;3.23;;
5684;SDS011;2865;53.114;9.130;2023-05-10T12:17:36;5.27;;;2.80;;
5684;SDS011;2865;53.114;9.130;2023-05-10T12:22:39;3.10;;;2.83;;
5684;SDS011;2865;53.114;9.130;2023-05-10T12:25:05;3.33;;;2.30;;
5684;SDS011;2865;53.114;9.130;2023-05-10T12:27:32;3.53;;;2.10;;
5684;SDS011;2865;53.114;9.130;2023-05-10T12:29:58;2.63;;;2.43;;
5684;SDS011;2865;53.114;9.130;2023-05-10T12:32:36;3.50;;;2.77;;
5684;SDS011;2865;53.114;9.130;2023-05-10T12:34:48;2.50;;;2.30;;
5684;SDS011;2865;53.114;9.130;2023-05-10T12:37:14;4.50;;;3.17;;
5684;SDS011;2865;53.114;9.130;2023-05-10T12:39:40;3.50;;;2.53;;
5684;SDS011;2865;53.114;9.130;2023-05-10T12:42:05;2.70;;;2.50;;
5684;SDS011;2865;53.114;9.130;2023-05-10T12:44:31;2.23;;;2.07;;
5684;SDS011;2865;53.114;9.130;2023-05-10T12:46:56;2.87;;;2.67;;
5684;SDS011;2865;53.114;9.130;2023-05-10T12:49:22;1.80;;;1.70;;
5684;SDS011;2865;53.114;9.130;2023-05-10T12:51:47;1.30;;;0.90;;
5684;SDS011;2865;53.114;9.130;2023-05-10T12:54:13;1.20;;;1.10;;
5684;SDS011;2865;53.114;9.130;2023-05-10T12:56:38;1.43;;;1.33;;
5684;SDS011;2865;53.114;9.130;2023-05-10T12:59:04;1.07;;;1.07;;
5684;SDS011;2865;53.114;9.130;2023-05-10T13:01:29;1.67;;;1.20;;
5684;SDS011;2865;53.114;9.130;2023-05-10T13:03:55;1.07;;;1.07;;
5684;SDS011;2865;53.114;9.130;2023-05-10T13:06:20;1.20;;;1.10;;
5684;SDS011;2865;53.114;9.130;2023-05-10T13:08:45;1.20;;;1.17;;
5684;SDS011;2865;53.114;9.130;2023-05-10T13:11:11;1.47;;;1.40;;
5684;SDS011;2865;53.114;9.130;2023-05-10T13:13:36;1.87;;;1.77;;
5684;SDS011;2865;53.114;9.130;2023-05-10T13:16:02;1.40;;;1.30;;
5684;SDS011;2865;53.114;9.130;2023-05-10T13:18:27;1.40;;;1.40;;
5684;SDS011;2865;53.114;9.130;2023-05-10T13:20:53;1.13;;;1.13;;
5684;SDS011;2865;53.114;9.130;2023-05-10T13:23:18;2.60;;;1.83;;
5684;SDS011;2865;53.114;9.130;2023-05-10T13:25:43;1.53;;;1.00;;
5684;SDS011;2865;53.114;9.130;2023-05-10T13:28:09;2.50;;;1.20;;
5684;SDS011;2865;53.114;9.130;2023-05-10T13:30:35;1.50;;;1.00;;
5684;SDS011;2865;53.114;9.130;2023-05-10T13:33:00;1.30;;;1.20;;
5684;SDS011;2865;53.114;9.130;2023-05-10T13:35:26;1.50;;;1.40;;
5684;SDS011;2865;53.114;9.130;2023-05-10T13:37:51;2.10;;;1.60;;
5684;SDS011;2865;53.114;9.130;2023-05-10T13:40:16;1.37;;;1.00;;
5684;SDS011;2865;53.114;9.130;2023-05-10T13:42:42;1.40;;;1.30;;
5684;SDS011;2865;53.114;9.130;2023-05-10T13:45:08;1.20;;;1.10;;
5684;SDS011;2865;53.114;9.130;2023-05-10T13:47:34;1.60;;;1.50;;
5684;SDS011;2865;53.114;9.130;2023-05-10T13:50:00;1.80;;;1.70;;
5684;SDS011;2865;53.114;9.130;2023-05-10T13:52:25;2.17;;;2.07;;
5684;SDS011;2865;53.114;9.130;2023-05-10T13:54:50;1.60;;;1.50;;
5684;SDS011;2865;53.114;9.130;2023-05-10T13:57:16;1.90;;;1.80;;
5684;SDS011;2865;53.114;9.130;2023-05-10T13:59:41;1.97;;;1.80;;
5684;SDS011;2865;53.114;9.130;2023-05-10T14:02:07;2.83;;;2.63;;
5684;SDS011;2865;53.114;9.130;2023-05-10T14:04:32;2.10;;;2.00;;
5684;SDS011;2865;53.114;9.130;2023-05-10T14:06:58;2.20;;;2.10;;
5684;SDS011;2865;53.114;9.130;2023-05-10T14:09:23;2.90;;;2.70;;
5684;SDS011;2865;53.114;9.130;2023-05-10T14:11:49;3.40;;;3.20;;
5684;SDS011;2865;53.114;9.130;2023-05-10T14:14:14;4.73;;;4.33;;
5684;SDS011;2865;53.114;9.130;2023-05-10T14:16:42;4.83;;;3.80;;
5684;SDS011;2865;53.114;9.130;2023-05-10T14:19:07;4.20;;;3.83;;
5684;SDS011;2865;53.114;9.130;2023-05-10T14:21:32;4.30;;;3.90;;
5684;SDS011;2865;53.114;9.130;2023-05-10T14:23:58;4.30;;;4.00;;
5684;SDS011;2865;53.114;9.130;2023-05-10T14:26:23;4.43;;;4.10;;
5684;SDS011;2865;53.114;9.130;2023-05-10T14:28:49;3.90;;;3.60;;
5684;SDS011;2865;53.114;9.130;2023-05-10T14:31:14;4.40;;;4.00;;
5684;SDS011;2865;53.114;9.130;2023-05-10T14:33:40;8.30;;;4.07;;
5684;SDS011;2865;53.114;9.130;2023-05-10T14:36:06;3.97;;;3.67;;
5684;SDS011;2865;53.114;9.130;2023-05-10T14:38:32;4.07;;;3.77;;
5684;SDS011;2865;53.114;9.130;2023-05-10T14:40:57;4.17;;;3.77;;
5684;SDS011;2865;53.114;9.130;2023-05-10T14:43:22;3.63;;;3.33;;
5684;SDS011;2865;53.114;9.130;2023-05-10T14:45:48;3.50;;;3.20;;
5684;SDS011;2865;53.114;9.130;2023-05-10T14:48:13;3.60;;;3.30;;
5684;SDS011;2865;53.114;9.130;2023-05-10T14:50:39;5.63;;;3.37;;
5684;SDS011;2865;53.114;9.130;2023-05-10T14:53:04;4.10;;;3.70;;
5684;SDS011;2865;53.114;9.130;2023-05-10T14:55:29;4.40;;;3.30;;
5684;SDS011;2865;53.114;9.130;2023-05-10T14:57:55;3.73;;;3.37;;
5684;SDS011;2865;53.114;9.130;2023-05-10T15:00:20;3.40;;;3.10;;
5684;SDS011;2865;53.114;9.130;2023-05-10T15:02:46;3.30;;;3.00;;
5684;SDS011;2865;53.114;9.130;2023-05-10T15:05:11;3.40;;;2.70;;
5684;SDS011;2865;53.114;9.130;2023-05-10T15:07:37;2.97;;;2.67;;
5684;SDS011;2865;53.114;9.130;2023-05-10T15:10:02;2.90;;;2.70;;
5684;SDS011;2865;53.114;9.130;2023-05-10T15:12:28;2.97;;;2.73;;
5684;SDS011;2865;53.114;9.130;2023-05-10T15:14:54;1.90;;;1.80;;
5684;SDS011;2865;53.114;9.130;2023-05-10T15:17:19;2.27;;;2.10;;
5684;SDS011;2865;53.114;9.130;2023-05-10T15:19:44;2.23;;;2.03;;
5684;SDS011;2865;53.114;9.130;2023-05-10T15:22:10;2.70;;;2.20;;
5684;SDS011;2865;53.114;9.130;2023-05-10T15:24:35;3.83;;;3.27;;
5684;SDS011;2865;53.114;9.130;2023-05-10T15:27:01;2.80;;;2.60;;
5684;SDS011;2865;53.114;9.130;2023-05-10T15:29:26;2.57;;;2.37;;